Time;durP1;ratioP1;P1;durP2;ratioP2;P2;SDS_P1;SDS_P2;PMS_P1;PMS_P2;Temp;Humidity;BMP_temperature;BMP_pressure;BME280_temperature;BME280_humidity;BME280_pressure;Samples;Min_cycle;Max_cycle;Signal;HPM_P1;HPM_P2
2022/01/12 00:01:05;;;;;;;8.18;6.35;;;;;;;8.83;61.78;102206.63;4978081;28;102420;-89
2022/01/12 00:03:33;;;;;;;6.70;5.82;;;;;;;8.83;62.46;102212.03;4978587;28;102248;-90
2022/01/12 00:06:00;;;;;;;10.82;7.38;;;;;;;8.83;61.91;102217.47;4988315;28;102412;-90
2022/01/12 00:08:31;;;;;;;8.40;6.95;;;;;;;8.81;61.95;102206.03;4976146;28;102521;-90
2022/01/12 00:10:58;;;;;;;8.57;6.40;;;;;;;8.82;62.19;102213.09;4977225;28;104002;-91
2022/01/12 00:13:25;;;;;;;7.80;6.68;;;;;;;8.83;62.33;102216.66;4975953;28;102242;-91
2022/01/12 00:15:54;;;;;;;7.97;6.60;;;;;;;8.83;61.82;102217.47;4975571;28;102110;-91
2022/01/12 00:18:21;;;;;;;7.60;6.18;;;;;;;8.83;62.17;102214.75;4977955;28;102252;-93
2022/01/12 00:20:49;;;;;;;9.20;7.05;;;;;;;8.81;61.68;102208.75;4977049;28;102818;-94
2022/01/12 00:23:16;;;;;;;8.85;6.75;;;;;;;8.82;62.37;102210.41;4977679;28;102044;-88
2022/01/12 00:33:59;;;;;;;10.38;7.95;;;;;;;8.83;61.86;102211.22;4970681;28;102465;-91
2022/01/12 00:36:27;;;;;;;9.35;7.45;;;;;;;8.83;62.32;102214.75;4977953;28;102422;-90
2022/01/12 00:38:53;;;;;;;9.80;7.43;;;;;;;8.83;62.38;102217.47;4971400;28;102840;-89
2022/01/12 00:41:20;;;;;;;10.15;7.70;;;;;;;8.84;62.13;102215.63;4974909;28;105150;-90
2022/01/12 00:43:50;;;;;;;8.73;6.93;;;;;;;8.83;61.86;102212.03;4977144;28;102138;-93
2022/01/12 00:46:18;;;;;;;9.02;7.13;;;;;;;8.83;61.62;102217.47;4976424;28;102172;-89
2022/01/12 00:48:44;;;;;;;9.65;6.90;;;;;;;8.83;61.88;102212.03;4976990;28;102582;-89
2022/01/12 00:51:11;;;;;;;8.88;7.10;;;;;;;8.83;62.48;102217.47;4976263;28;103892;-90
2022/01/12 00:53:39;;;;;;;9.80;7.63;;;;;;;8.82;61.85;102218.53;4974697;28;102677;-90
2022/01/12 00:56:06;;;;;;;9.00;6.65;;;;;;;8.83;62.31;102214.75;4976878;28;102550;-90
2022/01/12 00:58:33;;;;;;;9.63;7.25;;;;;;;8.82;61.75;102215.81;4978527;28;102131;-89
2022/01/12 01:01:00;;;;;;;9.80;7.22;;;;;;;8.83;61.65;102222.91;4973308;28;103904;-89
2022/01/12 01:03:29;;;;;;;9.50;6.97;;;;;;;8.84;62.37;102223.75;4975332;28;102073;-90
2022/01/12 01:05:56;;;;;;;10.43;7.75;;;;;;;8.83;62.25;102228.34;4976489;28;102453;-90
2022/01/12 01:08:23;;;;;;;9.10;7.07;;;;;;;8.83;62.34;102225.63;4977208;28;102509;-89
2022/01/12 01:10:52;;;;;;;11.07;7.35;;;;;;;8.82;61.90;102226.69;4975561;28;103919;-88
2022/01/12 01:13:24;;;;;;;10.07;7.00;;;;;;;8.82;61.87;102221.25;4974950;28;102422;-88
2022/01/12 01:26:39;;;;;;;9.18;7.65;;;;;;;8.83;62.19;102235.66;4975851;28;102773;-89
2022/01/12 01:29:06;;;;;;;9.32;7.20;;;;;;;8.83;62.25;102222.91;4970919;28;102581;-88
2022/01/12 01:31:34;;;;;;;9.07;6.95;;;;;;;8.82;61.82;102226.69;4974591;28;102943;-89
2022/01/12 01:34:13;;;;;;;8.52;7.03;;;;;;;8.82;61.79;102220.44;4974972;28;102452;-89
2022/01/12 01:36:42;;;;;;;9.98;6.63;;;;;;;8.83;61.83;102232.94;4975154;28;102406;-90
2022/01/12 01:39:11;;;;;;;8.65;6.85;;;;;;;8.82;61.80;102231.28;4976758;28;102017;-90
2022/01/12 01:41:40;;;;;;;9.30;6.82;;;;;;;8.80;62.00;102217.94;4976106;28;102459;-90
2022/01/12 01:54:58;;;;;;;7.97;6.82;;;;;;;8.80;62.07;102231.53;4973647;28;102439;-90
2022/01/12 01:57:26;;;;;;;8.10;6.82;;;;;;;8.80;62.23;102236.94;4976351;28;102209;-90
2022/01/12 01:59:52;;;;;;;8.63;6.65;;;;;;;8.80;61.41;102228.81;4976938;28;102127;-90
2022/01/12 02:02:18;;;;;;;9.50;7.13;;;;;;;8.80;61.53;102231.53;4975059;28;102941;-91
2022/01/12 02:04:46;;;;;;;7.90;6.78;;;;;;;8.81;61.50;102235.88;4973603;28;103069;-90
2022/01/12 02:07:14;;;;;;;8.20;7.30;;;;;;;8.81;62.34;102224.19;4971062;28;102037;-89
2022/01/12 02:09:41;;;;;;;8.13;6.47;;;;;;;8.80;62.48;102239.66;4966424;28;102271;-89
2022/01/12 02:12:09;;;;;;;7.85;6.55;;;;;;;8.81;62.25;102240.50;4974411;28;102801;-90
2022/01/12 02:14:36;;;;;;;7.45;6.65;;;;;;;8.82;61.83;102242.97;4973913;28;103727;-91
2022/01/12 02:17:09;;;;;;;7.18;6.40;;;;;;;8.82;62.34;102242.97;4975702;28;105156;-90
2022/01/12 02:20:10;;;;;;;8.45;6.60;;;;;;;8.81;62.18;102240.50;4989448;28;102253;-91
2022/01/12 02:36:54;;;;;;;7.45;6.07;;;;;;;8.80;62.31;102239.66;4973500;28;102226;-89
2022/01/12 02:42:08;;;;;;;7.82;6.47;;;;;;;8.79;61.79;102248.84;4975397;28;102217;-91
2022/01/12 02:55:43;;;;;;;8.48;5.97;;;;;;;8.78;61.68;102255.34;4972349;28;106249;-91
2022/01/12 02:58:09;;;;;;;6.80;5.97;;;;;;;8.79;61.49;102267.84;4972957;28;102424;-91
2022/01/12 03:03:25;;;;;;;6.80;5.82;;;;;;;8.78;62.67;102263.47;4963536;28;102502;-90
2022/01/12 03:05:58;;;;;;;6.95;6.07;;;;;;;8.79;61.84;102254.28;4971610;28;102723;-89
2022/01/12 03:08:26;;;;;;;6.95;5.63;;;;;;;8.79;61.63;102259.69;4972735;28;102200;-89
2022/01/12 03:10:54;;;;;;;7.13;6.03;;;;;;;8.79;61.79;102262.41;4973578;28;102357;-91
2022/01/12 03:13:21;;;;;;;7.68;6.43;;;;;;;8.78;61.82;102260.75;4976802;28;102487;-91
2022/01/12 03:15:49;;;;;;;7.13;6.15;;;;;;;8.78;61.92;102258.03;4973671;28;103445;-92
2022/01/12 03:18:15;;;;;;;7.82;5.95;;;;;;;8.78;62.05;102258.03;4975211;28;102082;-91
2022/01/12 03:20:43;;;;;;;6.85;5.63;;;;;;;8.78;61.58;102252.63;4974784;28;102229;-89
2022/01/12 03:23:09;;;;;;;7.28;6.25;;;;;;;8.78;61.74;102251.78;4977475;28;102241;-91
2022/01/12 03:25:35;;;;;;;7.05;5.65;;;;;;;8.78;61.74;102252.63;4976159;28;103960;-90
2022/01/12 03:28:06;;;;;;;7.22;6.38;;;;;;;8.77;61.63;102256.38;4978798;28;102600;-90
2022/01/12 03:30:54;;;;;;;6.93;6.22;;;;;;;8.78;62.30;102258.03;4977974;28;102156;-90
2022/01/12 03:36:25;;;;;;;7.00;6.20;;;;;;;8.78;61.72;102258.03;4975600;28;102737;-90
2022/01/12 03:38:54;;;;;;;6.57;5.80;;;;;;;8.78;61.21;102266.19;4981960;28;102206;-90
2022/01/12 03:41:21;;;;;;;6.78;5.82;;;;;;;8.77;62.40;102259.09;4975996;28;102286;-89
2022/01/12 03:43:49;;;;;;;7.38;5.78;;;;;;;8.77;62.05;102259.09;4977454;28;102296;-89
2022/01/12 03:46:18;;;;;;;8.43;5.63;;;;;;;8.78;62.40;102276.22;4977083;28;103425;-89
2022/01/12 03:48:44;;;;;;;;;;;;;;;8.77;61.86;102264.53;4978452;28;102149;-89
2022/01/12 03:51:11;;;;;;;7.13;5.90;;;;;;;8.77;62.38;102267.25;4977297;28;102481;-91
2022/01/12 03:53:37;;;;;;;6.78;5.53;;;;;;;8.76;62.24;102262.84;4979348;28;102377;-91
2022/01/12 03:56:04;;;;;;;6.80;5.70;;;;;;;8.77;61.72;102271.84;4976151;28;102707;-92
2022/01/12 03:58:30;;;;;;;6.20;5.43;;;;;;;8.76;62.46;102254.72;4976987;28;102438;-91
2022/01/12 04:00:58;;;;;;;7.55;5.80;;;;;;;8.76;61.96;102271.00;4959783;28;102452;-90
2022/01/12 04:03:25;;;;;;;6.53;5.82;;;;;;;8.76;62.00;102268.28;4977291;28;102703;-92
2022/01/12 04:08:23;;;;;;;5.45;4.95;;;;;;;8.75;62.46;102272.06;4977221;28;102449;-90
2022/01/12 04:10:52;;;;;;;7.47;5.70;;;;;;;8.75;62.75;102280.19;4975794;28;102336;-90
2022/01/12 04:13:22;;;;;;;6.55;5.95;;;;;;;8.74;62.05;102275.84;4972570;28;102195;-90
2022/01/12 04:15:51;;;;;;;6.55;5.95;;;;;;;8.74;62.17;102275.84;4977073;28;102692;-90
2022/01/12 04:18:19;;;;;;;6.97;5.78;;;;;;;8.74;62.74;102283.16;4977993;28;102300;-89
2022/01/12 04:20:47;;;;;;;6.38;5.70;;;;;;;8.72;61.85;102286.06;4977393;28;102397;-90
2022/01/12 04:23:17;;;;;;;7.60;5.73;;;;;;;8.74;62.21;102283.97;4992558;28;102356;-90
2022/01/12 04:25:44;;;;;;;6.47;5.75;;;;;;;8.73;62.14;102274.19;4971321;28;104517;-92
2022/01/12 04:28:10;;;;;;;8.73;6.07;;;;;;;8.72;61.71;102280.63;4976212;28;102344;-91
2022/01/12 04:30:37;;;;;;;7.05;6.35;;;;;;;8.71;61.88;102292.56;4977193;28;102241;-91
2022/01/12 04:33:03;;;;;;;7.55;5.90;;;;;;;8.71;61.60;102287.13;4977841;28;104747;-91
2022/01/12 04:35:35;;;;;;;6.53;5.55;;;;;;;8.72;62.32;102286.06;4975506;28;104188;-90
2022/01/12 04:38:02;;;;;;;6.65;5.45;;;;;;;8.72;62.13;102286.06;4976942;28;102509;-89
2022/01/12 04:40:29;;;;;;;7.43;6.13;;;;;;;8.72;61.72;102291.50;4992148;28;102405;-90
2022/01/12 04:42:56;;;;;;;6.82;6.13;;;;;;;8.70;61.78;102282.75;4975923;28;102746;-90
2022/01/12 04:45:40;;;;;;;6.40;5.43;;;;;;;8.71;62.37;102297.16;4975503;28;103248;-90
2022/01/12 04:50:57;;;;;;;6.55;5.88;;;;;;;8.71;62.26;102297.16;4928548;28;102281;-90
2022/01/12 04:53:24;;;;;;;7.40;6.45;;;;;;;8.71;61.59;102295.25;4977055;28;103465;-90
2022/01/12 04:55:51;;;;;;;6.97;6.18;;;;;;;8.70;61.64;102299.03;4977283;28;103761;-91
2022/01/12 04:58:19;;;;;;;7.38;6.13;;;;;;;8.71;62.12;102294.44;4978500;28;102137;-92
2022/01/12 05:00:48;;;;;;;8.13;6.80;;;;;;;8.70;61.87;102299.03;4975841;28;103186;-91
2022/01/12 05:13:59;;;;;;;7.82;6.20;;;;;;;8.69;62.31;102302.81;4977861;28;102179;-91
2022/01/12 05:16:26;;;;;;;6.85;6.15;;;;;;;8.70;62.12;102309.91;4977406;28;102836;-91
2022/01/12 05:18:54;;;;;;;6.07;5.47;;;;;;;8.70;62.19;102314.50;4980140;28;102110;-91
2022/01/12 05:21:24;;;;;;;7.65;6.13;;;;;;;8.69;62.10;102313.69;4979521;28;102126;-91
2022/01/12 05:23:50;;;;;;;7.68;6.30;;;;;;;8.69;61.76;102313.69;4994721;28;102242;-91
2022/01/12 05:26:17;;;;;;;8.65;6.38;;;;;;;8.70;62.19;102319.94;4977244;28;102827;-91
2022/01/12 05:28:43;;;;;;;7.93;6.35;;;;;;;8.70;62.15;102319.94;4976024;28;102032;-91
2022/01/12 05:31:11;;;;;;;8.43;6.45;;;;;;;8.69;61.46;102329.97;4977107;28;102143;-90
2022/01/12 05:33:41;;;;;;;7.80;6.60;;;;;;;8.69;62.15;102329.97;4977027;28;102391;-90
2022/01/12 05:36:07;;;;;;;8.93;7.03;;;;;;;8.68;61.82;102333.69;4975134;28;103933;-89
2022/01/12 05:38:36;;;;;;;8.38;7.13;;;;;;;8.68;61.95;102338.31;4973386;28;102119;-91
2022/01/12 05:41:05;;;;;;;8.67;7.50;;;;;;;8.68;61.56;102341.00;4974030;28;102593;-89
2022/01/12 05:43:35;;;;;;;9.18;7.40;;;;;;;8.67;61.83;102348.34;4975718;28;102586;-90
2022/01/12 05:46:10;;;;;;;8.98;6.93;;;;;;;8.67;62.02;102356.47;4971151;28;102662;-89
2022/01/12 05:51:22;;;;;;;10.23;7.05;;;;;;;8.68;62.00;102355.41;4973308;28;102769;-91
2022/01/12 05:53:51;;;;;;;8.80;7.28;;;;;;;8.67;62.15;102359.19;4974972;28;102552;-87
2022/01/12 05:56:17;;;;;;;8.38;6.85;;;;;;;8.68;62.12;102365.44;4973047;28;102841;-90
2022/01/12 05:58:44;;;;;;;8.48;6.82;;;;;;;8.68;62.11;102377.13;4971943;28;102245;-89
2022/01/12 06:01:11;;;;;;;8.02;6.80;;;;;;;8.68;61.91;102388.00;4981187;28;102807;-89
2022/01/12 06:03:38;;;;;;;10.10;6.80;;;;;;;8.68;61.75;102393.41;4976232;28;102237;-89
2022/01/12 06:06:04;;;;;;;8.43;6.50;;;;;;;8.68;61.71;102388.00;4972919;28;102768;-90
2022/01/12 06:08:32;;;;;;;9.50;7.07;;;;;;;8.68;61.56;102371.69;4968390;28;103040;-88
2022/01/12 06:10:59;;;;;;;8.27;7.00;;;;;;;8.68;62.30;102387.16;4970867;28;102215;-89
2022/01/12 06:13:27;;;;;;;9.47;7.07;;;;;;;8.69;61.97;102395.09;4971777;28;102271;-90
2022/01/12 06:15:56;;;;;;;9.25;7.30;;;;;;;8.67;61.80;102391.75;4969410;28;102726;-89
2022/01/12 06:18:23;;;;;;;10.00;6.63;;;;;;;8.67;61.56;102399.91;4975712;28;102081;-89
2022/01/12 06:20:49;;;;;;;9.02;7.18;;;;;;;8.68;61.56;102390.69;4973434;28;102265;-88
2022/01/12 06:23:17;;;;;;;8.32;7.07;;;;;;;8.68;61.85;102389.88;4975034;28;102103;-89
2022/01/12 06:25:44;;;;;;;8.90;6.93;;;;;;;8.69;62.06;102394.25;4971453;28;102584;-88
2022/01/12 06:31:17;;;;;;;7.55;6.35;;;;;;;8.69;61.95;102399.66;4968691;28;102520;-89
2022/01/12 06:33:46;;;;;;;10.65;6.55;;;;;;;8.68;61.50;102398.84;4972944;28;102504;-90
2022/01/12 06:36:14;;;;;;;9.05;6.57;;;;;;;8.69;61.53;102405.97;4971611;28;103138;-90
2022/01/12 06:38:41;;;;;;;10.27;7.00;;;;;;;8.68;61.75;102404.28;4991285;28;102427;-87
2022/01/12 06:41:09;;;;;;;8.98;6.95;;;;;;;8.68;62.19;102403.44;4974776;28;103293;-88
2022/01/12 06:43:37;;;;;;;8.38;6.95;;;;;;;8.68;61.92;102409.69;4975846;28;102155;-88
2022/01/12 06:46:05;;;;;;;8.48;7.10;;;;;;;8.67;61.63;102416.19;4972867;28;103998;-89
2022/01/12 06:48:33;;;;;;;8.25;6.68;;;;;;;8.69;62.23;102418.66;4975017;28;102117;-91
2022/01/12 06:51:00;;;;;;;7.97;6.32;;;;;;;8.68;61.46;102419.72;4968936;28;102126;-91
2022/01/12 06:53:27;;;;;;;8.70;6.85;;;;;;;8.68;61.68;102407.00;4975431;28;103029;-92
2022/01/12 06:55:54;;;;;;;7.68;5.93;;;;;;;8.68;61.74;102408.88;4973210;28;103898;-90
2022/01/12 06:58:21;;;;;;;8.55;7.28;;;;;;;8.69;61.73;102411.38;4973993;28;102222;-89
2022/01/12 07:00:49;;;;;;;7.20;5.97;;;;;;;8.68;62.78;102417.00;4986152;28;102499;-92
2022/01/12 07:03:15;;;;;;;7.43;5.88;;;;;;;8.68;62.12;102415.13;4973286;28;102150;-89
2022/01/12 07:05:42;;;;;;;7.30;6.03;;;;;;;8.66;62.06;102412.66;4974708;28;104232;-89
2022/01/12 07:08:08;;;;;;;7.50;5.93;;;;;;;8.67;61.86;102408.03;4973984;28;102843;-89
2022/01/12 07:10:36;;;;;;;8.70;7.07;;;;;;;8.66;61.94;102409.09;4973474;28;102269;-90
2022/01/12 07:13:02;;;;;;;8.32;6.22;;;;;;;8.65;61.46;102399.28;4978979;28;102560;-89
2022/01/12 07:15:29;;;;;;;10.98;6.75;;;;;;;8.65;62.04;102404.69;4973335;28;103185;-87
2022/01/12 07:18:02;;;;;;;10.52;7.15;;;;;;;8.60;61.81;102402.66;4985063;28;102217;-88
2022/01/12 07:20:28;;;;;;;12.77;8.63;;;;;;;8.45;57.53;102401.28;4974906;28;102297;-88
2022/01/12 07:22:55;;;;;;;12.60;7.50;;;;;;;8.27;55.16;102415.50;4975693;28;102195;-87
2022/01/12 07:25:22;;;;;;;13.10;8.65;;;;;;;8.09;56.06;102410.78;4969418;28;102723;-86
2022/01/12 07:27:48;;;;;;;18.15;8.73;;;;;;;8.10;57.68;102401.56;4974053;28;103643;-86
2022/01/12 07:30:14;;;;;;;14.30;8.10;;;;;;;8.14;59.67;102397.38;4974371;28;102272;-87
2022/01/12 07:32:41;;;;;;;13.90;7.53;;;;;;;8.17;59.81;102396.97;4970978;28;102475;-87
2022/01/12 07:35:09;;;;;;;17.88;8.27;;;;;;;8.19;60.20;102395.72;4990285;28;102842;-86
2022/01/12 07:37:36;;;;;;;11.40;8.70;;;;;;;8.21;60.45;102394.66;4974823;28;102453;-86
2022/01/12 07:40:02;;;;;;;20.23;7.75;;;;;;;8.21;60.16;102400.91;4976169;28;102346;-87
2022/01/12 07:42:31;;;;;;;;;;;;;;;8.22;60.43;102389.00;4977724;28;102573;-86
2022/01/12 07:45:00;;;;;;;15.10;7.25;;;;;;;8.20;60.83;102401.97;4977098;28;103514;-86
2022/01/12 07:47:27;;;;;;;10.60;7.32;;;;;;;8.21;60.81;102414.47;4978837;28;102315;-86
2022/01/12 07:49:54;;;;;;;10.85;6.55;;;;;;;8.21;60.79;102403.63;4973952;28;102180;-87
2022/01/12 07:52:22;;;;;;;14.73;7.90;;;;;;;8.22;60.87;102409.88;4975737;28;103679;-87
2022/01/12 07:54:49;;;;;;;12.07;7.50;;;;;;;8.21;60.22;102414.47;4975596;28;104027;-87
2022/01/12 07:57:15;;;;;;;11.70;7.22;;;;;;;8.21;60.93;102414.47;4979533;28;102288;-87
2022/01/12 07:59:43;;;;;;;11.07;6.72;;;;;;;8.21;60.66;102403.63;4975736;28;102267;-88
2022/01/12 08:02:10;;;;;;;10.25;7.07;;;;;;;8.20;60.75;102401.97;4975838;28;102335;-88
2022/01/12 08:04:37;;;;;;;12.77;6.80;;;;;;;8.22;60.63;102405.28;4974395;28;103273;-87
2022/01/12 08:07:04;;;;;;;15.07;7.10;;;;;;;8.22;60.70;102415.31;4972849;28;102331;-87
2022/01/12 08:09:32;;;;;;;12.80;6.80;;;;;;;8.23;60.28;102412.38;4974692;28;102014;-88
2022/01/12 08:11:58;;;;;;;12.27;7.25;;;;;;;8.21;61.29;102409.03;4973704;28;102484;-87
2022/01/12 08:14:25;;;;;;;16.13;7.75;;;;;;;8.24;60.75;102413.22;4970743;28;102842;-87
2022/01/12 08:16:52;;;;;;;12.55;6.50;;;;;;;8.22;61.08;102426.97;4975855;28;102360;-87
2022/01/12 08:19:20;;;;;;;11.18;6.85;;;;;;;8.24;61.20;102415.94;4970660;28;102610;-88
2022/01/12 08:21:47;;;;;;;9.15;6.63;;;;;;;8.23;60.97;102409.69;4988722;28;102428;-88
2022/01/12 08:24:14;;;;;;;13.90;6.63;;;;;;;8.24;60.79;102410.50;4970338;28;103517;-88
2022/01/12 08:26:42;;;;;;;9.63;6.55;;;;;;;8.24;61.05;102405.91;4973524;28;102566;-88
2022/01/12 08:29:13;;;;;;;16.50;6.72;;;;;;;8.25;60.14;102415.69;4971845;28;102496;-89
2022/01/12 08:31:40;;;;;;;9.70;6.25;;;;;;;8.25;60.43;102404.84;4972181;28;102249;-87
2022/01/12 08:34:06;;;;;;;11.45;6.53;;;;;;;8.23;61.12;102406.97;4973493;28;102692;-89
2022/01/12 08:36:32;;;;;;;16.45;7.15;;;;;;;8.26;61.27;102409.25;4972894;28;102061;-88
2022/01/12 08:39:02;;;;;;;9.45;7.30;;;;;;;8.26;60.59;102395.69;4971068;28;103481;-88
2022/01/12 08:41:28;;;;;;;18.48;7.60;;;;;;;8.26;60.80;102387.56;4986607;28;102822;-90
2022/01/12 08:43:56;;;;;;;24.65;7.75;;;;;;;8.26;61.03;102390.28;4985588;28;102712;-88
2022/01/12 08:46:23;;;;;;;18.88;6.93;;;;;;;8.28;60.87;102385.44;4972661;28;102537;-87
2022/01/12 08:48:49;;;;;;;26.98;7.90;;;;;;;8.28;61.10;102388.16;4975367;28;102735;-85
2022/01/12 08:51:16;;;;;;;13.68;6.55;;;;;;;8.27;60.66;102381.06;4974238;28;102323;-86
2022/01/12 08:53:42;;;;;;;16.08;7.03;;;;;;;8.29;60.68;102378.13;4975185;28;102359;-87
2022/01/12 08:56:08;;;;;;;12.95;6.63;;;;;;;8.28;61.32;102377.31;4975199;28;102261;-88
2022/01/12 08:58:37;;;;;;;16.38;6.88;;;;;;;8.29;60.73;102375.41;4974553;28;102415;-87
2022/01/12 09:01:04;;;;;;;14.47;5.67;;;;;;;8.29;60.59;102373.53;4979857;28;102298;-87
2022/01/12 09:03:31;;;;;;;14.45;6.25;;;;;;;8.31;60.68;102370.63;4976019;28;104012;-87
2022/01/12 09:05:58;;;;;;;14.15;5.88;;;;;;;8.31;61.25;102371.44;4977403;28;102197;-87
2022/01/12 09:08:24;;;;;;;10.38;6.30;;;;;;;8.31;60.11;102370.63;4977159;28;102011;-87
2022/01/12 09:10:51;;;;;;;9.77;6.15;;;;;;;8.31;60.66;102371.44;4977870;28;102490;-87
2022/01/12 09:13:17;;;;;;;10.65;6.13;;;;;;;8.31;60.79;102366.03;4976098;28;102650;-88
2022/01/12 09:15:44;;;;;;;9.23;5.75;;;;;;;8.32;60.55;102367.69;4974864;28;102117;-86
2022/01/12 09:18:11;;;;;;;16.42;5.82;;;;;;;8.33;61.03;102373.94;4971602;28;102202;-87
2022/01/12 09:20:38;;;;;;;11.80;5.95;;;;;;;8.32;60.95;102373.09;4975887;28;102458;-87
2022/01/12 09:23:08;;;;;;;12.15;6.20;;;;;;;8.33;60.21;102374.78;4973683;28;102930;-87
2022/01/12 09:25:39;;;;;;;39.60;8.48;;;;;;;8.33;61.17;102369.38;4975285;28;102192;-86
2022/01/12 09:28:05;;;;;;;38.53;8.45;;;;;;;8.34;60.11;102360.19;4975027;28;104751;-86
2022/01/12 09:30:33;;;;;;;42.70;7.78;;;;;;;8.35;60.35;102361.00;4977339;28;102357;-87
2022/01/12 09:32:59;;;;;;;26.08;7.60;;;;;;;8.35;61.11;102350.16;4975631;28;104082;-87
2022/01/12 14:48:28;;;;;;;12.50;6.35;;;;;;;8.29;60.61;102340.16;5107360;27;102531;-86
2022/01/12 14:50:56;;;;;;;7.85;5.03;;;;;;;8.30;60.95;102342.66;5093606;27;102048;-87
2022/01/12 14:53:23;;;;;;;11.20;5.57;;;;;;;8.30;61.49;102348.09;5062689;27;104144;-87
2022/01/12 14:55:52;;;;;;;9.70;6.10;;;;;;;8.31;60.67;102344.31;5062692;27;102299;-87
2022/01/12 14:58:19;;;;;;;10.85;5.65;;;;;;;8.32;60.66;102351.41;5050246;27;102401;-87
2022/01/12 15:00:47;;;;;;;11.40;6.55;;;;;;;8.32;60.60;102351.41;5069814;27;105453;-87
2022/01/12 15:03:14;;;;;;;9.13;6.07;;;;;;;8.33;60.48;102361.22;5065078;27;103540;-86
2022/01/12 15:05:44;;;;;;;8.93;6.13;;;;;;;8.34;60.94;102357.47;5066283;27;103766;-87
2022/01/12 15:08:13;;;;;;;9.35;5.88;;;;;;;8.36;61.00;102368.91;5061208;27;102146;-87
2022/01/12 15:10:39;;;;;;;9.70;7.03;;;;;;;8.36;60.35;102365.38;5069048;27;102445;-86
2022/01/12 15:15:44;;;;;;;9.15;6.18;;;;;;;8.37;60.93;102365.19;5060696;27;102408;-87
2022/01/12 15:18:10;;;;;;;13.02;7.30;;;;;;;8.38;60.66;102369.56;5067879;27;102413;-87
2022/01/12 15:20:37;;;;;;;10.25;6.70;;;;;;;8.39;60.38;102371.22;5070690;27;103387;-87
2022/01/12 15:23:05;;;;;;;9.98;6.70;;;;;;;8.39;61.06;102373.94;5065013;27;102978;-87
2022/01/12 15:25:31;;;;;;;11.60;6.95;;;;;;;8.40;60.77;102370.19;5061344;27;102417;-88
2022/01/12 15:28:00;;;;;;;11.35;7.97;;;;;;;8.40;60.81;102375.63;5062992;27;102629;-89
2022/01/12 15:30:26;;;;;;;10.07;7.25;;;;;;;8.42;61.17;102373.50;5066374;27;102531;-89
2022/01/12 15:32:53;;;;;;;8.60;6.68;;;;;;;8.41;61.06;102371.84;5063304;27;103230;-89
2022/01/12 15:35:20;;;;;;;9.02;6.80;;;;;;;8.42;60.54;102376.22;5066224;27;103606;-88
2022/01/12 15:37:47;;;;;;;12.60;6.80;;;;;;;8.43;61.04;102380.59;5076142;27;102141;-87
2022/01/12 15:40:16;;;;;;;10.20;6.78;;;;;;;8.43;60.68;102380.59;5076164;27;103632;-87
2022/01/12 15:42:42;;;;;;;10.73;7.07;;;;;;;8.45;60.23;102385.81;5066445;27;103998;-87
2022/01/12 15:45:09;;;;;;;15.32;8.13;;;;;;;8.46;60.55;102394.78;5059733;27;102168;-87
2022/01/12 15:47:37;;;;;;;12.73;8.60;;;;;;;8.46;60.58;102394.78;5061865;27;102697;-87
2022/01/12 15:50:05;;;;;;;15.02;8.93;;;;;;;8.46;61.26;102397.50;5063292;27;102243;-87
2022/01/12 15:52:32;;;;;;;13.70;8.88;;;;;;;8.47;60.85;102401.88;5064816;27;104212;-87
2022/01/12 15:54:58;;;;;;;10.30;8.57;;;;;;;8.48;61.35;102398.97;5061428;27;102221;-87
2022/01/12 15:57:28;;;;;;;12.65;8.27;;;;;;;8.47;61.38;102397.28;5063613;27;102320;-87
2022/01/12 15:59:54;;;;;;;12.32;9.23;;;;;;;8.48;60.63;102396.25;5061806;27;102951;-89
2022/01/12 16:02:21;;;;;;;10.65;9.00;;;;;;;8.49;60.27;102405.22;5055089;27;102753;-89
2022/01/12 16:04:47;;;;;;;13.32;9.82;;;;;;;8.49;60.49;102405.22;5053349;27;102057;-89
2022/01/12 16:07:14;;;;;;;73.65;33.03;;;;;;;8.50;61.13;102415.84;5054005;27;102234;-90
2022/01/12 16:09:41;;;;;;;54.70;28.08;;;;;;;8.35;57.50;102410.66;5055704;27;104518;-90
2022/01/12 16:12:08;;;;;;;429.38;57.88;;;;;;;8.11;55.67;102409.53;5063143;27;106298;-89
2022/01/12 16:14:36;;;;;;;600.75;72.28;;;;;;;8.15;59.49;102412.59;5070514;27;102284;-89
2022/01/12 16:17:04;;;;;;;511.95;70.60;;;;;;;8.20;59.46;102410.09;5070233;27;102227;-90
2022/01/12 16:19:31;;;;;;;467.20;69.93;;;;;;;8.23;59.39;102417.81;5066652;27;103604;-90
2022/01/12 16:21:58;;;;;;;448.30;63.22;;;;;;;8.25;60.62;102421.13;5071851;27;103371;-90
2022/01/12 16:24:24;;;;;;;453.80;65.35;;;;;;;8.26;59.80;102433.66;5077107;27;102040;-89
2022/01/12 16:26:51;;;;;;;404.73;55.72;;;;;;;8.26;60.18;102425.53;5072590;27;103830;-90
2022/01/12 16:29:19;;;;;;;372.25;57.20;;;;;;;8.26;59.86;102425.53;5070194;27;102492;-90
2022/01/12 16:31:47;;;;;;;395.95;58.50;;;;;;;8.26;59.69;102436.38;5070251;27;103245;-89
2022/01/12 16:34:14;;;;;;;338.45;54.72;;;;;;;8.25;59.72;102440.13;5079484;27;102597;-90
2022/01/12 16:36:43;;;;;;;306.38;49.25;;;;;;;8.26;60.10;102441.81;5067116;27;102243;-90
2022/01/12 16:39:13;;;;;;;336.50;50.58;;;;;;;8.26;59.40;102439.09;5077441;27;102285;-91
2022/01/12 16:41:39;;;;;;;282.52;46.00;;;;;;;8.26;59.85;102439.09;5075907;27;103005;-90
2022/01/12 16:44:07;;;;;;;291.48;47.55;;;;;;;8.27;60.39;102450.78;5076135;27;102436;-90
2022/01/12 16:46:34;;;;;;;95.20;28.00;;;;;;;8.26;59.72;102449.94;5076860;27;102273;-89
2022/01/12 16:49:03;;;;;;;46.90;19.38;;;;;;;8.11;55.86;102452.03;5068673;27;102599;-89
2022/01/12 16:51:30;;;;;;;105.05;25.80;;;;;;;7.98;57.16;102452.09;5064374;27;104042;-90
2022/01/12 16:53:56;;;;;;;105.22;26.42;;;;;;;8.00;58.50;102450.00;5069378;27;102740;-88
2022/01/12 16:56:22;;;;;;;60.90;23.75;;;;;;;8.02;59.04;102453.34;5070860;27;102215;-91
2022/01/12 16:58:49;;;;;;;70.32;22.77;;;;;;;8.04;58.81;102462.06;5077856;27;102117;-91
2022/01/12 17:01:16;;;;;;;70.55;23.92;;;;;;;8.05;59.42;102469.19;5068573;27;103608;-91
2022/01/12 17:03:44;;;;;;;64.18;21.58;;;;;;;8.05;60.05;102459.16;5071369;27;102219;-91
2022/01/12 17:06:14;;;;;;;56.08;22.85;;;;;;;8.06;59.31;102465.41;5075576;27;101961;-90
2022/01/12 17:08:43;;;;;;;63.03;21.20;;;;;;;8.06;59.36;102473.56;5053202;27;102224;-90
2022/01/12 17:11:09;;;;;;;;;;;;;;;8.06;58.83;102476.28;5054218;27;102690;-91
2022/01/12 17:13:36;;;;;;;46.58;19.77;;;;;;;8.06;59.66;102479.81;5057786;27;102128;-90
2022/01/12 17:16:40;;;;;;;39.53;19.55;;;;;;;8.06;59.61;102481.69;5047716;27;102384;-91
2022/01/12 17:19:13;;;;;;;42.08;18.85;;;;;;;8.06;59.48;102492.53;5053932;27;102145;-89
2022/01/12 17:21:43;;;;;;;50.42;19.17;;;;;;;8.05;59.61;102486.28;5054406;27;102825;-89
2022/01/12 17:24:19;;;;;;;45.25;18.90;;;;;;;8.06;59.60;102481.69;5057132;27;101990;-90
2022/01/12 17:27:08;;;;;;;44.15;19.20;;;;;;;8.06;60.17;102492.53;5056469;27;102755;-94
2022/01/12 17:29:35;;;;;;;44.03;17.88;;;;;;;8.06;60.05;102487.13;5051513;27;103082;-90
2022/01/12 17:32:02;;;;;;;43.92;17.95;;;;;;;8.05;59.94;102496.31;5058307;27;102734;-91
2022/01/12 17:34:29;;;;;;;33.20;16.98;;;;;;;8.06;59.47;102497.97;5049647;27;102538;-91
2022/01/12 17:37:00;;;;;;;31.40;16.40;;;;;;;8.05;59.74;102505.25;5051587;27;102070;-92
2022/01/12 17:39:28;;;;;;;39.15;17.48;;;;;;;8.06;59.52;102514.22;5057477;27;102267;-91
2022/01/12 17:41:56;;;;;;;40.63;16.48;;;;;;;8.06;59.58;102516.94;5055484;27;102792;-93
2022/01/12 17:44:24;;;;;;;50.07;17.80;;;;;;;8.06;59.94;102511.53;5050689;27;102418;-93
2022/01/12 17:46:52;;;;;;;34.55;15.32;;;;;;;8.06;59.85;102522.38;5049483;27;102410;-92
2022/01/12 17:49:19;;;;;;;37.33;15.95;;;;;;;8.07;59.51;102526.72;5056505;27;102704;-92
2022/01/12 17:51:47;;;;;;;31.15;13.63;;;;;;;8.08;60.04;102528.41;5048197;27;103741;-89
2022/01/12 17:54:22;;;;;;;37.28;15.70;;;;;;;8.07;59.91;102533.00;5057444;27;102232;-91
2022/01/12 17:56:50;;;;;;;37.10;15.35;;;;;;;8.08;60.10;102539.28;5049403;27;102495;-92
2022/01/12 17:59:17;;;;;;;29.47;13.97;;;;;;;8.08;59.74;102539.28;5055165;27;102093;-91
2022/01/12 18:01:44;;;;;;;35.95;13.77;;;;;;;8.09;59.79;102538.22;5056499;27;102781;-91
2022/01/12 18:04:10;;;;;;;30.85;13.48;;;;;;;8.08;59.29;102544.69;5046215;27;102278;-91